createdAt,value
2023-02-06T00:01:23.556Z,98227.22
2023-02-06T00:03:51.640Z,98220.94
2023-02-06T00:06:19.947Z,98211.34
2023-02-06T00:08:47.770Z,98216.34
2023-02-06T00:11:17.740Z,98220.56
2023-02-06T00:13:47.028Z,98223.59
2023-02-06T00:16:18.236Z,98216.94
2023-02-06T00:18:46.042Z,98215.16
2023-02-06T00:21:14.496Z,98235.88
2023-02-06T00:23:42.572Z,98214.91
2023-02-06T00:26:10.554Z,98236.03
2023-02-06T00:28:38.481Z,98228.38
2023-02-06T00:31:08.833Z,98237.25
2023-02-06T00:33:37.600Z,98232.97
2023-02-06T00:36:06.032Z,98234.06
2023-02-06T00:38:34.125Z,98230.31
2023-02-06T00:41:01.889Z,98226.97
2023-02-06T00:43:30.074Z,98229.75
2023-02-06T00:45:59.353Z,98220.84
2023-02-06T00:48:28.657Z,98221.91
2023-02-06T00:50:56.508Z,98221.69
2023-02-06T00:53:24.666Z,98218.66
2023-02-06T00:55:52.430Z,98196.44
2023-02-06T00:58:20.264Z,98211.66
2023-02-06T01:00:48.113Z,98221.97
2023-02-06T01:03:15.882Z,98206.81
2023-02-06T01:05:44.998Z,98214.19
2023-02-06T01:08:13.012Z,98219.06
2023-02-06T01:10:42.410Z,98221.09
2023-02-06T01:13:10.357Z,98235.13
2023-02-06T01:15:38.341Z,98211.25
2023-02-06T01:18:06.572Z,98231.50
2023-02-06T01:20:34.616Z,98234.88
2023-02-06T01:23:03.907Z,98229.97
2023-02-06T01:25:31.968Z,98220.56
2023-02-06T01:28:00.009Z,98232.22
2023-02-06T01:30:27.878Z,98223.22
2023-02-06T01:32:55.612Z,98228.50
2023-02-06T01:35:23.404Z,98216.69
2023-02-06T01:37:51.213Z,98232.34
2023-02-06T01:40:20.484Z,98220.56
2023-02-06T01:42:48.208Z,98226.97
2023-02-06T01:45:36.108Z,98224.44
2023-02-06T01:48:08.801Z,98224.97
2023-02-06T01:50:40.478Z,98227.53
2023-02-06T01:53:09.004Z,98218.19
2023-02-06T01:55:40.801Z,98212.50
2023-02-06T01:58:12.135Z,98220.25
2023-02-06T02:00:40.132Z,98215.66
2023-02-06T02:03:08.084Z,98210.00
2023-02-06T02:05:36.850Z,98206.09
2023-02-06T02:08:11.438Z,98208.31
2023-02-06T02:10:40.723Z,98206.66
2023-02-06T02:13:08.544Z,98201.34
2023-02-06T02:15:43.185Z,98201.66
2023-02-06T02:18:26.314Z,98204.13
2023-02-06T02:21:38.983Z,98206.38
2023-02-06T02:24:09.800Z,98194.00
2023-02-06T02:27:04.686Z,98181.78
2023-02-06T02:30:03.891Z,98186.41
2023-02-06T02:33:04.499Z,98191.94
2023-02-06T02:35:46.862Z,98184.69
2023-02-06T02:38:27.742Z,98190.38
2023-02-06T02:41:04.249Z,98188.19
2023-02-06T02:43:40.044Z,98176.94
2023-02-06T02:46:15.914Z,98186.41
2023-02-06T02:48:47.205Z,98181.50
2023-02-06T02:51:17.659Z,98170.06
2023-02-06T02:53:45.880Z,98181.44
2023-02-06T02:56:19.154Z,98188.63
2023-02-06T02:58:50.479Z,98184.41
2023-02-06T03:01:22.086Z,98183.44
2023-02-06T03:03:53.377Z,98188.63
2023-02-06T03:06:43.700Z,98190.06
2023-02-06T03:09:23.434Z,98178.38
2023-02-06T03:12:00.177Z,98192.53
2023-02-06T03:14:34.696Z,98194.91
2023-02-06T03:17:08.413Z,98194.91
2023-02-06T03:19:41.379Z,98204.38
2023-02-06T03:22:11.981Z,98206.50
2023-02-06T03:24:40.885Z,98194.84
2023-02-06T03:27:12.953Z,98202.22
2023-02-06T03:29:42.675Z,98208.66
2023-02-06T03:32:16.866Z,98197.81
2023-02-06T03:34:51.810Z,98200.66
2023-02-06T03:37:22.790Z,98202.69
2023-02-06T03:39:50.748Z,98179.78
2023-02-06T03:42:20.391Z,98198.03
2023-02-06T03:44:57.716Z,98200.34
2023-02-06T03:47:26.756Z,98182.56
2023-02-06T03:49:57.358Z,98192.81
2023-02-06T03:52:31.559Z,98200.16
2023-02-06T03:55:03.360Z,98193.72
2023-02-06T03:57:34.035Z,98191.78
2023-02-06T04:00:01.865Z,98193.56
2023-02-06T04:02:30.430Z,98184.03
2023-02-06T04:04:58.263Z,98206.38
2023-02-06T04:07:29.752Z,98212.41
2023-02-06T04:09:57.673Z,98221.00
2023-02-06T04:12:26.100Z,98218.19
2023-02-06T04:14:54.106Z,98188.38
2023-02-06T04:17:40.645Z,98206.94
2023-02-06T04:20:10.877Z,98214.31
2023-02-06T04:22:40.741Z,98209.31
2023-02-06T04:25:09.121Z,98212.91
2023-02-06T04:27:37.124Z,98213.47
2023-02-06T04:30:06.305Z,98217.34
2023-02-06T04:32:34.178Z,98222.94
2023-02-06T04:35:02.049Z,98216.84
2023-02-06T04:37:29.842Z,98218.50
2023-02-06T04:39:59.004Z,98227.94
2023-02-06T04:42:26.843Z,98225.41
2023-02-06T04:44:54.619Z,98214.03
2023-02-06T04:47:22.361Z,98207.34
2023-02-06T04:49:50.286Z,98210.03
2023-02-06T04:52:17.999Z,98196.00
2023-02-06T04:54:45.749Z,98182.94
2023-02-06T04:57:14.928Z,98201.00
2023-02-06T04:59:42.693Z,98172.09
2023-02-06T05:02:10.432Z,98189.59
2023-02-06T05:04:38.957Z,98198.22
2023-02-06T05:07:06.739Z,98195.16
2023-02-06T05:09:34.502Z,98190.03
2023-02-06T05:12:02.642Z,98191.00
2023-02-06T05:14:31.868Z,98182.50
2023-02-06T05:16:59.653Z,98177.06
2023-02-06T05:19:27.408Z,98183.75
2023-02-06T05:21:55.301Z,98173.19
2023-02-06T05:24:23.039Z,98177.63
2023-02-06T05:26:51.172Z,98177.34
2023-02-06T05:29:19.011Z,98182.31
2023-02-06T05:31:48.152Z,98183.75
2023-02-06T05:34:15.975Z,98175.00
2023-02-06T05:36:43.723Z,98179.22
2023-02-06T05:39:11.488Z,98181.69
2023-02-06T05:41:39.385Z,98177.41
2023-02-06T05:44:07.429Z,98177.41
2023-02-06T05:46:35.212Z,98182.66
2023-02-06T05:49:04.625Z,98177.81
2023-02-06T05:51:32.346Z,98185.03
2023-02-06T05:54:00.347Z,98190.75
2023-02-06T05:56:28.197Z,98183.66
2023-02-06T05:58:55.927Z,98196.44
2023-02-06T06:01:23.726Z,98206.56
2023-02-06T06:03:51.561Z,98196.28
2023-02-06T06:06:20.870Z,98188.53
2023-02-06T06:08:48.677Z,98193.38
2023-02-06T06:11:16.600Z,98190.44
2023-02-06T06:13:44.392Z,98179.88
2023-02-06T06:16:12.273Z,98176.00
2023-02-06T06:18:40.078Z,98163.25
2023-02-06T06:21:07.855Z,98176.28
2023-02-06T06:23:36.990Z,98186.41
2023-02-06T06:26:05.067Z,98173.25
2023-02-06T06:28:35.023Z,98164.34
2023-02-06T06:31:03.743Z,98177.25
2023-02-06T06:33:31.905Z,98171.81
2023-02-06T06:35:59.744Z,98154.56
2023-02-06T06:38:27.772Z,98144.34
2023-02-06T06:40:56.963Z,98158.50
2023-02-06T06:43:24.743Z,98162.38
2023-02-06T06:45:52.604Z,98175.75
2023-02-06T06:48:20.516Z,98174.34
2023-02-06T06:50:50.020Z,98173.22
2023-02-06T06:53:18.101Z,98152.81
2023-02-06T06:55:46.001Z,98166.00
2023-02-06T06:58:15.384Z,98169.06
2023-02-06T07:00:43.208Z,98177.91
2023-02-06T07:03:11.752Z,98172.94
2023-02-06T07:05:40.046Z,98170.03
2023-02-06T07:08:07.832Z,98175.88
2023-02-06T07:10:35.736Z,98185.06
2023-02-06T07:13:03.600Z,98180.75
2023-02-06T07:15:32.766Z,98193.97
2023-02-06T07:18:00.609Z,98186.88
2023-02-06T07:20:29.019Z,98190.59
2023-02-06T07:22:56.797Z,98198.78
2023-02-06T07:25:24.615Z,98189.88
2023-02-06T07:27:52.379Z,98199.28
2023-02-06T07:30:20.450Z,98195.31
2023-02-06T07:32:49.660Z,98200.03
2023-02-06T07:35:17.659Z,98194.47
2023-02-06T07:37:45.461Z,98201.56
2023-02-06T07:40:14.242Z,98190.03
2023-02-06T07:42:42.082Z,98175.44
2023-02-06T07:45:10.665Z,98182.13
2023-02-06T07:47:38.535Z,98149.34
2023-02-06T07:50:08.341Z,98179.03
2023-02-06T07:52:36.592Z,98167.75
2023-02-06T07:55:04.686Z,98177.06
2023-02-06T07:57:32.449Z,98132.81
2023-02-06T08:00:00.217Z,98172.38
2023-02-06T08:02:28.090Z,98160.41
2023-02-06T08:04:55.846Z,98182.66
2023-02-06T08:07:25.020Z,98179.84
2023-02-06T08:09:52.803Z,98189.53
2023-02-06T08:12:20.606Z,98183.94
2023-02-06T08:14:48.578Z,98178.53
2023-02-06T08:17:18.361Z,98183.91
2023-02-06T08:19:47.202Z,98187.94
2023-02-06T08:22:14.940Z,98181.97
2023-02-06T08:24:45.106Z,98186.63
2023-02-06T08:27:13.113Z,98177.88
2023-02-06T08:29:42.587Z,98179.03
2023-02-06T08:32:10.867Z,98188.63
2023-02-06T08:34:40.050Z,98191.66
2023-02-06T08:37:07.922Z,98175.53
2023-02-06T08:39:35.688Z,98191.94
2023-02-06T08:42:05.404Z,98198.84
2023-02-06T08:44:33.772Z,98194.22
2023-02-06T08:47:10.158Z,98195.00
2023-02-06T08:49:38.719Z,98203.41
2023-02-06T08:52:06.891Z,98201.06
2023-02-06T08:54:36.815Z,98181.56
2023-02-06T08:57:07.952Z,98195.41
2023-02-06T08:59:35.982Z,98183.75
2023-02-06T09:02:03.797Z,98212.13
2023-02-06T09:04:32.860Z,98214.00
2023-02-06T09:07:00.766Z,98192.03
2023-02-06T09:09:28.579Z,98207.84
2023-02-06T09:12:02.197Z,98190.81
2023-02-06T09:14:32.226Z,98203.53
2023-02-06T09:17:00.304Z,98187.84
2023-02-06T09:19:28.854Z,98187.84
2023-02-06T09:21:56.676Z,98201.00
2023-02-06T09:24:24.744Z,98191.50
2023-02-06T09:27:00.908Z,98197.00
2023-02-06T09:29:31.577Z,98194.50
2023-02-06T09:32:01.618Z,98189.47
2023-02-06T09:34:29.983Z,98174.66
2023-02-06T09:36:58.029Z,98150.22
2023-02-06T09:39:26.487Z,98154.81
2023-02-06T09:41:56.276Z,98187.25
2023-02-06T09:44:30.797Z,98203.16
2023-02-06T09:47:04.988Z,98196.59
2023-02-06T09:49:38.369Z,98185.78
2023-02-06T09:52:41.513Z,98178.75
2023-02-06T09:55:23.334Z,98185.31
2023-02-06T09:57:57.491Z,98174.22
2023-02-06T10:00:37.226Z,98178.38
2023-02-06T10:03:31.204Z,98169.56
2023-02-06T10:06:10.115Z,98179.13
2023-02-06T10:08:40.988Z,98169.66
2023-02-06T10:11:14.008Z,98166.53
2023-02-06T10:13:49.608Z,98174.09
2023-02-06T10:16:30.438Z,98173.72
2023-02-06T10:19:04.189Z,98174.19
2023-02-06T10:21:36.356Z,98109.84
2023-02-06T10:24:12.494Z,98175.19
2023-02-06T10:26:41.600Z,98171.41
2023-02-06T10:29:17.205Z,98142.66
2023-02-06T10:31:56.548Z,98157.84
2023-02-06T10:34:37.426Z,98163.09
2023-02-06T10:37:26.320Z,98149.56
2023-02-06T10:40:11.203Z,98138.50
2023-02-06T10:42:51.701Z,98145.22
2023-02-06T10:45:33.653Z,98133.00
2023-02-06T10:48:07.760Z,98121.00
2023-02-06T10:50:40.536Z,98141.78
2023-02-06T10:53:17.077Z,98133.94
2023-02-06T10:55:49.325Z,98127.06
2023-02-06T10:58:28.338Z,98102.41
2023-02-06T11:00:58.701Z,98102.84
2023-02-06T11:03:30.589Z,98110.66
2023-02-06T11:06:00.602Z,98115.72
2023-02-06T11:08:31.165Z,98085.41
2023-02-06T11:10:59.859Z,98096.16
2023-02-06T11:13:34.289Z,98106.19
2023-02-06T11:16:05.665Z,98095.41
2023-02-06T11:18:37.693Z,98074.81
2023-02-06T11:21:07.423Z,98080.22
2023-02-06T11:23:35.703Z,98067.41
2023-02-06T11:26:10.681Z,98066.19
2023-02-06T11:28:41.654Z,98075.84
2023-02-06T11:31:10.446Z,98068.13
2023-02-06T11:33:46.835Z,98055.78
2023-02-06T11:36:27.358Z,98062.94
2023-02-06T11:38:57.217Z,98079.38
2023-02-06T11:41:24.991Z,98063.38
2023-02-06T11:43:54.844Z,98061.53
2023-02-06T11:46:26.450Z,98066.72
2023-02-06T11:49:05.558Z,98060.81
2023-02-06T11:51:49.796Z,98068.59
2023-02-06T11:54:23.533Z,98066.31
2023-02-06T11:57:09.376Z,98057.06
2023-02-06T11:59:50.279Z,98054.03
2023-02-06T12:02:31.163Z,98050.75
2023-02-06T12:05:05.204Z,98052.22
2023-02-06T12:07:38.876Z,98035.59
2023-02-06T12:10:14.898Z,98034.03
2023-02-06T12:12:46.362Z,98028.06
2023-02-06T12:15:39.765Z,97997.66
2023-02-06T12:18:10.781Z,98009.84
2023-02-06T12:20:48.028Z,98015.75
2023-02-06T12:23:23.419Z,98008.56
2023-02-06T12:25:56.547Z,98014.28
2023-02-06T12:28:29.458Z,98006.66
2023-02-06T12:31:00.264Z,98002.16
2023-02-06T12:33:36.141Z,97992.94
2023-02-06T12:36:08.007Z,97991.97
2023-02-06T12:38:43.547Z,97999.38
2023-02-06T12:41:24.999Z,97991.38
2023-02-06T12:43:58.092Z,97995.19
2023-02-06T12:46:28.840Z,97984.03
2023-02-06T12:49:07.826Z,97976.72
2023-02-06T12:51:42.059Z,97969.16
2023-02-06T12:54:18.305Z,97991.38
2023-02-06T12:56:49.814Z,97973.97
2023-02-06T12:59:56.985Z,97968.38
2023-02-06T13:02:50.445Z,97948.72
2023-02-06T13:05:25.257Z,97964.84
2023-02-06T13:07:57.107Z,97962.84
2023-02-06T13:10:27.368Z,97969.78
2023-02-06T13:12:56.009Z,97954.78
2023-02-06T13:15:26.117Z,97964.78
2023-02-06T13:17:55.547Z,97958.03
2023-02-06T13:20:25.807Z,97966.94
2023-02-06T13:22:55.093Z,97950.09
2023-02-06T13:25:54.607Z,97961.63
2023-02-06T13:28:57.159Z,97960.97
2023-02-06T13:31:33.751Z,97961.75
2023-02-06T13:34:04.089Z,97955.47
2023-02-06T13:36:49.931Z,97957.13
2023-02-06T13:39:27.348Z,97928.69
2023-02-06T13:41:57.595Z,97956.19
2023-02-06T13:44:29.787Z,97972.91
2023-02-06T13:47:50.819Z,97959.78
2023-02-06T13:50:51.038Z,97967.34
2023-02-06T13:53:36.658Z,97963.03
2023-02-06T13:56:22.434Z,97953.44
2023-02-06T13:58:54.137Z,97948.44
2023-02-06T14:01:26.207Z,97964.47
2023-02-06T14:03:54.681Z,97962.56
2023-02-06T14:06:44.480Z,97961.50
2023-02-06T14:09:43.664Z,97968.72
2023-02-06T14:12:35.426Z,97962.69
2023-02-06T14:15:24.824Z,97965.06
2023-02-06T14:18:07.746Z,97983.59
2023-02-06T14:20:48.727Z,97975.22
2023-02-06T14:23:28.440Z,97969.13
2023-02-06T14:26:13.716Z,97977.16
2023-02-06T14:28:50.765Z,97979.22
2023-02-06T14:31:36.720Z,97980.16
2023-02-06T14:34:24.436Z,97947.72
2023-02-06T14:37:21.509Z,97988.78
2023-02-06T14:39:52.623Z,97988.34
2023-02-06T14:42:25.488Z,97975.28
2023-02-06T14:44:58.145Z,97970.88
2023-02-06T14:47:30.032Z,97981.97
2023-02-06T14:50:00.571Z,97986.38
2023-02-06T14:52:30.717Z,97994.75
2023-02-06T14:54:58.535Z,97980.28
2023-02-06T14:57:28.040Z,97990.75
2023-02-06T14:59:58.735Z,97989.34
2023-02-06T15:02:30.849Z,98005.75
2023-02-06T15:04:59.354Z,98012.47
2023-02-06T15:07:31.381Z,98012.84
2023-02-06T15:10:01.332Z,98003.69
2023-02-06T15:12:32.031Z,97984.69
2023-02-06T15:15:04.313Z,97995.16
2023-02-06T15:17:34.607Z,97996.84
2023-02-06T15:20:23.604Z,98002.59
2023-02-06T15:22:52.210Z,98008.41
2023-02-06T15:25:34.932Z,98004.88
2023-02-06T15:28:05.969Z,98004.28
2023-02-06T15:30:37.286Z,97987.34
2023-02-06T15:33:11.347Z,97995.66
2023-02-06T15:35:42.184Z,97989.94
2023-02-06T15:38:14.597Z,98004.22
2023-02-06T15:40:45.721Z,98005.34
2023-02-06T15:43:16.768Z,97995.38
2023-02-06T15:45:46.405Z,97998.25
2023-02-06T15:48:21.049Z,98001.72
2023-02-06T15:51:00.716Z,97998.38
2023-02-06T15:53:35.792Z,98000.28
2023-02-06T15:56:05.603Z,98011.81
2023-02-06T15:58:34.664Z,98021.94
2023-02-06T16:01:05.972Z,98014.03
2023-02-06T16:03:35.256Z,98019.69
2023-02-06T16:06:03.041Z,98024.97
2023-02-06T16:08:35.993Z,98008.34
2023-02-06T16:11:27.111Z,98025.53
2023-02-06T16:13:55.710Z,98014.50
2023-02-06T16:16:25.332Z,97989.16
2023-02-06T16:18:58.739Z,98007.75
2023-02-06T16:21:30.581Z,98027.50
2023-02-06T16:24:16.583Z,98006.72
2023-02-06T16:26:47.910Z,98035.25
2023-02-06T16:29:22.512Z,98043.09
2023-02-06T16:31:59.011Z,98038.81
2023-02-06T16:34:37.471Z,98040.25
2023-02-06T16:37:11.875Z,98038.06
2023-02-06T16:39:42.286Z,98042.63
2023-02-06T16:42:14.383Z,98045.97
2023-02-06T16:44:45.822Z,98060.97
2023-02-06T16:47:16.810Z,98056.13
2023-02-06T16:49:48.261Z,98063.47
2023-02-06T16:52:20.345Z,98060.97
2023-02-06T16:54:48.217Z,98060.97
2023-02-06T16:57:23.712Z,98053.78
2023-02-06T16:59:51.645Z,98057.69
2023-02-06T17:02:19.526Z,98061.59
2023-02-06T17:04:48.929Z,98070.16
2023-02-06T17:07:20.540Z,98076.03
2023-02-06T17:09:49.747Z,98058.69
2023-02-06T17:12:19.956Z,98062.28
2023-02-06T17:14:48.709Z,98061.50
2023-02-06T17:17:22.451Z,98060.81
2023-02-06T17:19:53.691Z,98076.91
2023-02-06T17:22:23.000Z,98076.75
2023-02-06T17:24:50.912Z,98064.97
2023-02-06T17:27:20.743Z,98085.25
2023-02-06T17:29:49.581Z,98075.81
2023-02-06T17:32:22.123Z,98069.72
2023-02-06T17:34:54.357Z,98092.75
2023-02-06T17:37:22.412Z,98077.47
2023-02-06T17:39:51.365Z,98076.78
2023-02-06T17:42:21.984Z,98068.59
2023-02-06T17:44:50.081Z,98069.72
2023-02-06T17:47:18.203Z,98061.13
2023-02-06T17:49:47.069Z,98074.44
2023-02-06T17:52:16.878Z,98066.13
2023-02-06T17:54:45.226Z,98065.00
2023-02-06T17:57:14.334Z,98070.94
2023-02-06T17:59:42.148Z,98058.19
2023-02-06T18:02:14.768Z,98025.59
2023-02-06T18:04:42.676Z,98044.16
2023-02-06T18:07:10.765Z,98050.97
2023-02-06T18:09:42.051Z,98039.34
2023-02-06T18:12:10.418Z,98038.22
2023-02-06T18:14:39.981Z,98041.13
2023-02-06T18:17:08.533Z,98032.25
2023-02-06T18:19:42.133Z,98030.44
2023-02-06T18:22:10.935Z,98016.28
2023-02-06T18:24:40.948Z,98018.66
2023-02-06T18:27:09.731Z,98018.09
2023-02-06T18:29:49.467Z,98025.56
2023-02-06T18:32:19.342Z,98035.59
2023-02-06T18:34:47.728Z,98013.25
2023-02-06T18:37:21.111Z,98006.03
2023-02-06T18:39:50.477Z,98018.66
2023-02-06T18:42:35.585Z,98009.22
2023-02-06T18:45:04.342Z,97989.38
2023-02-06T18:47:32.520Z,98001.00
2023-02-06T18:50:00.528Z,97997.56
2023-02-06T18:52:29.161Z,97997.56
2023-02-06T18:54:58.561Z,97995.34
2023-02-06T18:57:26.532Z,97991.75
2023-02-06T18:59:54.657Z,97992.00
2023-02-06T19:02:22.805Z,97995.88
2023-02-06T19:04:50.897Z,97981.50
2023-02-06T19:07:20.235Z,97983.69
2023-02-06T19:09:48.297Z,97981.78
2023-02-06T19:12:17.660Z,97967.44
2023-02-06T19:14:47.902Z,97964.03
2023-02-06T19:17:15.937Z,97966.38
2023-02-06T19:19:43.975Z,97970.94
2023-02-06T19:22:11.979Z,97978.16
2023-02-06T19:24:41.819Z,97975.38
2023-02-06T19:27:09.816Z,97974.97
2023-02-06T19:29:39.555Z,97970.13
2023-02-06T19:32:08.923Z,97984.28
2023-02-06T19:34:39.826Z,97978.97
2023-02-06T19:37:10.467Z,97972.06
2023-02-06T19:39:40.482Z,97968.19
2023-02-06T19:42:15.409Z,97978.16
2023-02-06T19:44:44.923Z,97978.16
2023-02-06T19:47:12.907Z,97981.50
2023-02-06T19:49:40.695Z,97987.19
2023-02-06T19:52:09.565Z,97972.88
2023-02-06T19:54:37.403Z,97984.13
2023-02-06T19:57:05.324Z,97979.53
2023-02-06T19:59:33.315Z,97972.75
2023-02-06T20:02:03.687Z,97958.72
2023-02-06T20:04:34.172Z,97974.00
2023-02-06T20:07:02.426Z,97965.41
2023-02-06T20:09:30.954Z,97965.09
2023-02-06T20:11:59.252Z,97962.91
2023-02-06T20:14:27.963Z,97957.22
2023-02-06T20:16:56.357Z,97950.00
2023-02-06T20:19:27.882Z,97917.84
2023-02-06T20:21:58.620Z,97946.66
2023-02-06T20:24:29.086Z,97927.13
2023-02-06T20:26:59.762Z,97921.75
2023-02-06T20:29:30.195Z,97909.13
2023-02-06T20:31:58.596Z,97909.94
2023-02-06T20:34:28.811Z,97904.13
2023-02-06T20:36:57.644Z,97904.38
2023-02-06T20:39:26.698Z,97911.03
2023-02-06T20:41:55.188Z,97913.69
2023-02-06T20:44:23.130Z,97921.44
2023-02-06T20:46:51.104Z,97906.59
2023-02-06T20:49:20.313Z,97909.94
2023-02-06T20:51:50.165Z,97916.69
2023-02-06T20:54:18.694Z,97917.97
2023-02-06T20:56:47.375Z,97909.34
2023-02-06T20:59:16.625Z,97909.75
2023-02-06T21:01:45.027Z,97916.06
2023-02-06T21:04:14.986Z,97910.38
2023-02-06T21:06:43.181Z,97894.56
2023-02-06T21:09:13.290Z,97911.63
2023-02-06T21:11:44.293Z,97902.88
2023-02-06T21:14:13.625Z,97883.25
2023-02-06T21:16:43.709Z,97891.81
2023-02-06T21:19:13.230Z,97873.94
2023-02-06T21:21:41.101Z,97890.84
2023-02-06T21:24:09.924Z,97890.94
2023-02-06T21:26:40.728Z,97882.81
2023-02-06T21:29:08.923Z,97871.56
2023-02-06T21:31:38.957Z,97874.63
2023-02-06T21:34:09.715Z,97869.69
2023-02-06T21:36:39.567Z,97854.44
2023-02-06T21:39:07.920Z,97874.13
2023-02-06T21:41:36.472Z,97857.25
2023-02-06T21:44:06.152Z,97857.50
2023-02-06T21:46:34.447Z,97836.16
2023-02-06T21:49:02.333Z,97853.91
2023-02-06T21:51:31.477Z,97856.66
2023-02-06T21:53:59.781Z,97856.09
2023-02-06T21:56:30.382Z,97827.97
2023-02-06T21:58:58.915Z,97850.00
2023-02-06T22:01:30.192Z,97843.25
2023-02-06T22:03:59.668Z,97833.97
2023-02-06T22:06:28.975Z,97830.91
2023-02-06T22:09:04.476Z,97839.22
2023-02-06T22:11:32.900Z,97822.47
2023-02-06T22:14:03.445Z,97840.63
2023-02-06T22:16:33.092Z,97823.13
2023-02-06T22:19:01.748Z,97813.16
2023-02-06T22:21:31.446Z,97817.63
2023-02-06T22:24:01.042Z,97819.38
2023-02-06T22:26:31.237Z,97811.75
2023-02-06T22:28:59.679Z,97813.41
2023-02-06T22:31:30.494Z,97811.50
2023-02-06T22:34:00.774Z,97787.09
2023-02-06T22:36:30.784Z,97817.00
2023-02-06T22:39:00.567Z,97821.72
2023-02-06T22:41:29.143Z,97822.25
2023-02-06T22:43:57.169Z,97830.56
2023-02-06T22:46:26.611Z,97817.84
2023-02-06T22:48:54.795Z,97824.50
2023-02-06T22:51:26.850Z,97821.19
2023-02-06T22:53:55.266Z,97827.59
2023-02-06T22:56:30.714Z,97833.13
2023-02-06T22:59:02.146Z,97827.06
2023-02-06T23:01:32.988Z,97826.50
2023-02-06T23:04:02.425Z,97830.22
2023-02-06T23:06:33.403Z,97823.09
2023-02-06T23:09:02.983Z,97821.72
2023-02-06T23:11:31.836Z,97829.22
2023-02-06T23:14:02.493Z,97811.75
2023-02-06T23:16:31.764Z,97821.28
2023-02-06T23:19:01.673Z,97815.59
2023-02-06T23:21:31.654Z,97814.91
2023-02-06T23:24:00.769Z,97821.41
2023-02-06T23:26:29.440Z,97824.22
2023-02-06T23:28:58.297Z,97818.28
2023-02-06T23:31:26.866Z,97800.25
2023-02-06T23:33:55.185Z,97813.13
2023-02-06T23:36:25.757Z,97810.03
2023-02-06T23:38:55.122Z,97818.63
2023-02-06T23:41:24.764Z,97807.81
2023-02-06T23:43:53.556Z,97806.28
2023-02-06T23:46:22.589Z,97800.59
2023-02-06T23:48:51.468Z,97779.88
2023-02-06T23:51:20.571Z,97783.34
2023-02-06T23:53:48.931Z,97766.09
2023-02-06T23:56:24.237Z,97781.75
2023-02-06T23:58:52.681Z,97785.91
